AirNav   Air Wisconsin Up To $57,000 Bonus
 
 1447 users online  

KUWL New Castle Henry County Airport / Marlatt Field
New Castle, Indiana, USA

GOING TO NEW CASTLE?


FAA INFORMATION EFFECTIVE 26 JANUARY 2023

Location

FAA Identifier: UWL
Lat/Long: 39-52-36.2000N 085-19-31.0000W
39-52.603333N 085-19.516667W
39.8767222,-85.3252778
(estimated)
Elevation: 1090.2 ft. / 332.3 m (surveyed)
Variation: 06W (2020)
From city: 4 miles SE of NEW CASTLE, IN
Time zone: UTC -5 (UTC -4 during Daylight Saving Time)
Zip code: 47362

Airport Operations

Airport use: Open to the public
Activation date: 09/1971
Control tower: no
ARTCC: INDIANAPOLIS CENTER
FSS: TERRE HAUTE FLIGHT SERVICE STATION
NOTAMs facility: HUF (NOTAM-D service available)
Attendance: 0800-1800
FUEL AFT HR - 765-332-2969.
Wind indicator: lighted
Segmented circle: no
Lights: ACTVT REIL RWY 10 & 28; PAPI RWY 10 & 28; MIRL RWY 10/28 - CTAF. MIRL RWY 10/28 PRESET LOW INTST; INCR INTST - CTAF.
Beacon: white-green (lighted land airport)
Operates sunset to sunrise.

Airport Communications

CTAF/UNICOM: 123.05
WX AWOS-3: 132.375 (765-422-5701)
INDIANAPOLIS APPROACH: 135.45
INDIANAPOLIS DEPARTURE: 135.45
WX AWOS-3 at CEV (14 nm SE): 118.325 (765-827-6649)
WX AWOS-3 at AID (19 nm NW): 128.55 (765-442-1245)

Nearby radio navigation aids

VOR radial/distance  VOR name  Freq  Var
MIEr175/21.9MUNCIE VOR/DME114.4003W
SHBr057/27.3SHELBYVILLE VOR/DME116.1501E

 
NDB name  Hdg/Dist  Freq  Var  ID
NEW CASTLEat field38506WUWL ..- .-- .-..
PNTHR308/10.822704WSQ ... --.-
VIDEO147/14.439403WAI .- ..
BATESVILLE359/32.025405WHLB .... .-.. -...
METROPOLITAN099/33.633803WUMP ..- -- .--.

Airport Services

Fuel available: 100LL JET-A
Parking: hangars and tiedowns
Airframe service: MINOR
Powerplant service: MINOR

Runway Information

Runway 10/28

Dimensions: 4201 x 75 ft. / 1280 x 23 m
Surface: asphalt, in good condition
Runway edge lights: medium intensity
RUNWAY 10  RUNWAY 28
Latitude: 39-52.606323N39-52.601465N
Longitude: 085-19.966247W085-19.068143W
Elevation: 1080.1 ft.1090.1 ft.
Traffic pattern: leftleft
Runway heading: 096 magnetic, 090 true276 magnetic, 270 true
Markings: nonprecision, in good conditionnonprecision, in good condition
Visual slope indicator: 2-light PAPI on left (3.00 degrees glide path)2-light PAPI on left (3.00 degrees glide path)
Runway end identifier lights: yesyes
Touchdown point: yes, no lightsyes, no lights
Obstructions: 10 ft. crops, 340 ft. from runway, 14:1 slope to clear10 ft. crops, 210 ft. from runway, 1:1 slope to clear

Airport Ownership and Management from official FAA records

Ownership: Publicly-owned
Owner: NEW CASTLE/HENRY COUNTY
2912 E. CO. RD. 400 S.
NEW CASTLE, IN 47362
Phone 765-529-7903
Manager: JOHN MARLATT
2912 E CO. RD 400 S
NEW CASTLE, IN 47362
Phone 765-529-7903
765-529-7909.

Airport Operational Statistics

Aircraft based on the field: 15
Single engine airplanes: 14
Helicopters: 1
    
Aircraft operations: avg 43/week *
80% local general aviation
16% transient general aviation
4% air taxi
* for 12-month period ending 31 December 2019

Additional Remarks

FOR CD CTC INDIANAPOLIS APCH AT 317-227-5743.

Instrument Procedures

NOTE: All procedures below are presented as PDF files. If you need a reader for these files, you should download the free Adobe Reader.

NOT FOR NAVIGATION. Please procure official charts for flight.
FAA instrument procedures published for use from 26 January 2023 at 0901Z to 23 February 2023 at 0900z.

 
IAPs - Instrument Approach Procedures
RNAV (GPS) RWY 10 **CHANGED**   download
RNAV (GPS) RWY 28 **CHANGED**   download
NDB RWY 10 **CHANGED**   download
NOTE: Special Take-Off Minimums/Departure Procedures apply   download (460KB)

Other nearby airports with instrument procedures:

KCEV - Mettel Field Airport (14 nm SE)
KAID - Anderson Municipal Airport-Darlington Field (19 nm NW)
KMIE - Delaware County Regional Airport (22 nm N)
KRID - Richmond Municipal Airport (23 nm E)
I22 - Randolph County Airport (25 nm NE)
 
Loc | Ops | Rwys | IFR | FBO | Links
Com | Nav | Svcs | Stats | Notes
Area around KUWL (New Castle Henry County Airport / Marlatt Field)
 
Road maps at: MapQuest Bing Google
 
Aerial photo
WARNING: Photo may not be current or correct
Aerial photo of KUWL (New Castle Henry County Airport / Marlatt Field)
Photo by Phil Brooks
Photo taken 30-Apr-2018
looking west.

Do you have a better or more recent aerial photo of New Castle Henry County Airport / Marlatt Field that you would like to share? If so, please send us your photo.

 
Sectional chart

 
Airport distance calculator
Flying to New Castle Henry County Airport / Marlatt Field? Find the distance to fly.

From to KUWL

Sunrise and sunset
Times for 06-Feb-2023
 Local
(UTC-5)
 Zulu
(UTC)
Morning civil twilight07:1712:17
Sunrise07:4612:46
Sunset18:0523:05
Evening civil twilight18:3423:34

Current date and time
Zulu (UTC)  06-Feb-2023 15:04:16
Local (UTC-5)  06-Feb-2023 10:04:16
 
METAR
KAID 
20nm NW 
061455Z AUTO 12007KT 10SM OVC010 M01/M04 A3028 RMK AO2 T10091042
KMIE 
22nm N 
061453Z 12008KT 10SM OVC014 00/M04 A3027 RMK AO2 SLP254 T00001044 51016 $
KRID 
23nm E 
061455Z AUTO 12004KT 10SM OVC013 M01/M02 A3028 RMK AO2
KMQJ 
26nm W 
061455Z AUTO 08008KT 7SM OVC009 M02/M02 A3027 RMK AO1
KGEZ 
28nm SW 
061453Z AUTO 12008KT 6SM HZ OVC009 01/M02 A3027 RMK AO2 SLP257 T00061022 51019
KHLB 
32nm S 
061455Z AUTO 06007KT 9SM BKN012 M01/M02 A3027 RMK A01
KUMP 
33nm W 
061435Z AUTO 00000KT 7SM OVC009 M01/M01 A3027 RMK AO2 T10071014
KOXD 
34nm SE 
061455Z AUTO 00000KT 10SM OVC013 02/M02 A3028 RMK AO2 T00221025
KHFY 
38nm SW 
061455Z AUTO 11006KT 7SM OVC008 00/M01 A3028 RMK AO2 T00001015
TAF
KIND 
45nm W 
061423Z 0614/0718 10005KT 6SM BR BKN009 FM061500 09006KT P6SM SCT012 FM061700 14008KT P6SM SCT250 FM070200 15012G20KT P6SM BKN240 WS020/23050KT FM070800 20015G24KT P6SM OVC035 WS020/23050KT
NOTAMs
Click for the latest NOTAMs
NOTAMs are issued by the DoD/FAA and will open in a separate window not controlled by AirNav.

 

 
 

FBO, Fuel Providers, and Aircraft Ground Support

  
 Business Name 
 
 Contact 
 
 Services / Description 
 
Fuel Prices
 
Comments
  
Sky Castle Aviation 765-529-7903
no information available

If you are affiliated with Sky Castle Aviation and would like to show here your services, contact info, web link, logo, and more, click here
100LL Jet A
FS $5.90 $5.45 
 Updated 02-Feb-2023
 
   write
FS=Full service
Update Fuel Prices
 

Would you like to see your business listed on this page?

 If your business provides an interesting product or service to pilots, flight crews, aircraft, or users of the New Castle Henry County Airport / Marlatt Field, you should consider listing it here.  To start the listing process, click on the button below
 
Add a business
 

Other Pages about New Castle Henry County Airport / Marlatt Field

Update a link
 
Copyright © AirNav, LLC. All rights reserved. Privacy Policy  Contact